Panama, Oklahoma
Current Conditions -  °F | °C
As of 10:35 AM on Friday 31 Oct 2014 (Local Time) from KRKR Reporting Station
Broken Clouds Broken Clouds  
Wind Chill: 54°   Ceiling: 2800
Heat Index: 54°   Visibility: 7mi
Dew Point: 41°   Wind: 14mph
Humidity: 62%   Direction: 360°N
Pressure: 30.33"   Gusts: 20mph
Location:  35.17°N, 94.67°W
Report Text: KRKR 311535Z AUTO 36012G17KT 7SM BKN028 12/05 A3033 RMK AO2 T01200049
Loading
Personal Weather Stations






























Interactive Weather Map
Tropical Storm Tracking
New forecast layout! Learn more

10-Day Weather Forecast

Advertisements
Track Severe Weather on mobile